createdAt,value
2022-11-29T00:00:03.527Z,947.10
2022-11-29T00:00:12.150Z,947.09
2022-11-29T00:00:22.148Z,947.09
2022-11-29T00:00:32.147Z,947.09
2022-11-29T00:00:42.150Z,947.09
2022-11-29T00:00:52.144Z,947.08
2022-11-29T00:01:02.146Z,947.08
2022-11-29T00:01:12.146Z,947.08
2022-11-29T00:01:22.155Z,947.08
2022-11-29T00:01:32.146Z,947.08
2022-11-29T00:01:42.173Z,947.08
2022-11-29T00:01:52.344Z,947.08
2022-11-29T00:02:02.314Z,947.08
2022-11-29T00:02:12.250Z,947.07
2022-11-29T00:02:22.257Z,947.07
2022-11-29T00:02:32.293Z,947.07
2022-11-29T00:02:42.224Z,947.07
2022-11-29T00:02:52.265Z,947.07
2022-11-29T00:03:02.234Z,947.06
2022-11-29T00:03:12.261Z,947.06
2022-11-29T00:03:22.185Z,947.06
2022-11-29T00:03:32.167Z,947.06
2022-11-29T00:03:42.165Z,947.06
2022-11-29T00:03:52.158Z,947.06
2022-11-29T00:04:02.175Z,947.06
2022-11-29T00:04:12.143Z,947.06
2022-11-29T00:04:22.164Z,947.06
2022-11-29T00:04:32.177Z,947.06
2022-11-29T00:04:42.508Z,947.06
2022-11-29T00:04:52.164Z,947.05
2022-11-29T00:05:02.163Z,947.05
2022-11-29T00:05:12.164Z,947.05
2022-11-29T00:05:22.165Z,947.05
2022-11-29T00:05:32.172Z,947.05
2022-11-29T00:05:42.162Z,947.05
2022-11-29T00:05:52.177Z,947.05
2022-11-29T00:06:02.166Z,947.05
2022-11-29T00:06:12.167Z,947.05
2022-11-29T00:06:22.164Z,947.05
2022-11-29T00:06:32.171Z,947.05
2022-11-29T00:06:42.169Z,947.05
2022-11-29T00:06:52.154Z,947.05
2022-11-29T00:07:02.172Z,947.05
2022-11-29T00:07:12.159Z,947.05
2022-11-29T00:07:22.249Z,947.05
2022-11-29T00:07:32.230Z,947.05
2022-11-29T00:07:42.231Z,947.05
2022-11-29T00:07:52.187Z,947.05
2022-11-29T00:08:02.175Z,947.05
2022-11-29T00:08:12.180Z,947.05
2022-11-29T00:08:22.177Z,947.05
2022-11-29T00:08:32.175Z,947.04
2022-11-29T00:08:42.174Z,947.05
2022-11-29T00:08:52.188Z,947.05
2022-11-29T00:09:02.174Z,947.05
2022-11-29T00:09:12.181Z,947.05
2022-11-29T00:09:22.178Z,947.05
2022-11-29T00:09:32.177Z,947.04
2022-11-29T00:09:42.189Z,947.05
2022-11-29T00:09:52.182Z,947.05
2022-11-29T00:10:02.197Z,947.05
2022-11-29T00:10:12.178Z,947.05
2022-11-29T00:10:22.165Z,947.05
2022-11-29T00:10:32.171Z,947.05
2022-11-29T00:10:42.168Z,947.05
2022-11-29T00:10:52.185Z,947.05
2022-11-29T00:11:02.181Z,947.06
2022-11-29T00:11:12.171Z,947.05
2022-11-29T00:11:22.186Z,947.05
2022-11-29T00:11:32.171Z,947.05
2022-11-29T00:11:42.223Z,947.05
2022-11-29T00:11:52.185Z,947.05
2022-11-29T00:12:02.192Z,947.05
2022-11-29T00:12:12.184Z,947.06
2022-11-29T00:12:22.192Z,947.06
2022-11-29T00:12:32.194Z,947.05
2022-11-29T00:12:42.193Z,947.06
2022-11-29T00:12:52.190Z,947.05
2022-11-29T00:13:02.175Z,947.06
2022-11-29T00:13:12.187Z,947.06
2022-11-29T00:13:22.195Z,947.06
2022-11-29T00:13:32.191Z,947.06
2022-11-29T00:13:42.192Z,947.06
2022-11-29T00:13:52.174Z,947.06
2022-11-29T00:14:02.193Z,947.06
2022-11-29T00:14:12.195Z,947.06
2022-11-29T00:14:22.196Z,947.06
2022-11-29T00:14:32.192Z,947.06
2022-11-29T00:14:42.639Z,947.06
2022-11-29T00:14:52.193Z,947.06
2022-11-29T00:15:02.202Z,947.06
2022-11-29T00:15:12.192Z,947.06
2022-11-29T00:15:22.196Z,947.06
2022-11-29T00:15:32.204Z,947.06
2022-11-29T00:15:42.218Z,947.06
2022-11-29T00:15:52.187Z,947.06
2022-11-29T00:16:02.181Z,947.06
2022-11-29T00:16:12.275Z,947.06
2022-11-29T00:16:22.231Z,947.06
2022-11-29T00:16:32.236Z,947.06
2022-11-29T00:16:42.272Z,947.06
2022-11-29T00:16:52.240Z,947.06
2022-11-29T00:17:02.904Z,947.05
2022-11-29T00:17:12.204Z,947.06
2022-11-29T00:17:22.205Z,947.06
2022-11-29T00:17:32.206Z,947.05
2022-11-29T00:17:42.192Z,947.05
2022-11-29T00:17:52.222Z,947.04
2022-11-29T00:18:02.206Z,947.04
2022-11-29T00:18:12.211Z,947.04
2022-11-29T00:18:22.209Z,947.04
2022-11-29T00:18:32.209Z,947.04
2022-11-29T00:18:42.227Z,947.03
2022-11-29T00:18:52.212Z,947.03
2022-11-29T00:19:02.211Z,947.03
2022-11-29T00:19:12.215Z,947.03
2022-11-29T00:19:22.221Z,947.03
2022-11-29T00:19:32.215Z,947.02
2022-11-29T00:19:42.215Z,947.03
2022-11-29T00:19:52.217Z,947.02
2022-11-29T00:20:02.236Z,947.02
2022-11-29T00:20:12.214Z,947.01
2022-11-29T00:20:22.222Z,947.01
2022-11-29T00:20:32.217Z,947.01
2022-11-29T00:20:42.217Z,947.01
2022-11-29T00:20:52.222Z,947.00
2022-11-29T00:21:02.221Z,947.00
2022-11-29T00:21:12.223Z,947.00
2022-11-29T00:21:22.225Z,947.00
2022-11-29T00:21:32.218Z,946.99
2022-11-29T00:21:42.220Z,946.99
2022-11-29T00:21:52.222Z,946.99
2022-11-29T00:22:02.222Z,946.98
2022-11-29T00:22:12.221Z,946.98
2022-11-29T00:22:22.233Z,946.98
2022-11-29T00:22:32.221Z,946.98
2022-11-29T00:22:42.223Z,946.97
2022-11-29T00:22:52.223Z,946.97
2022-11-29T00:23:02.225Z,946.97
2022-11-29T00:23:12.225Z,946.97
2022-11-29T00:23:22.226Z,946.97
2022-11-29T00:23:32.228Z,946.97
2022-11-29T00:23:42.239Z,946.97
2022-11-29T00:23:52.237Z,946.97
2022-11-29T00:24:02.234Z,946.97
2022-11-29T00:24:12.232Z,946.96
2022-11-29T00:24:22.233Z,946.96
2022-11-29T00:24:32.236Z,946.96
2022-11-29T00:24:42.532Z,946.96
2022-11-29T00:24:52.233Z,946.96
2022-11-29T00:25:02.234Z,946.96
2022-11-29T00:25:12.233Z,946.96
2022-11-29T00:25:22.235Z,946.96
2022-11-29T00:25:32.234Z,946.95
2022-11-29T00:25:42.240Z,946.96
2022-11-29T00:25:52.246Z,946.95
2022-11-29T00:26:02.236Z,946.95
2022-11-29T00:26:12.238Z,946.95
2022-11-29T00:26:22.249Z,946.95
2022-11-29T00:26:32.240Z,946.95
2022-11-29T00:26:42.242Z,946.95
2022-11-29T00:26:52.251Z,946.95
2022-11-29T00:27:02.234Z,946.95
2022-11-29T00:27:12.247Z,946.95
2022-11-29T00:27:22.242Z,946.95
2022-11-29T00:27:32.252Z,946.95
2022-11-29T00:27:42.258Z,946.95
2022-11-29T00:27:52.256Z,946.95
2022-11-29T00:28:02.255Z,946.95
2022-11-29T00:28:12.255Z,946.95
2022-11-29T00:28:22.253Z,946.95
2022-11-29T00:28:32.251Z,946.95
2022-11-29T00:28:42.292Z,946.94
2022-11-29T00:28:52.249Z,946.94
2022-11-29T00:29:02.253Z,946.94
2022-11-29T00:29:12.251Z,946.94
2022-11-29T00:29:22.261Z,946.94
2022-11-29T00:29:32.256Z,946.94
2022-11-29T00:29:42.271Z,946.93
2022-11-29T00:29:52.252Z,946.93
2022-11-29T00:30:02.255Z,946.93
2022-11-29T00:30:12.259Z,946.92
2022-11-29T00:30:22.257Z,946.92
2022-11-29T00:30:32.264Z,946.92
2022-11-29T00:30:42.328Z,946.92
2022-11-29T00:30:52.273Z,946.92
2022-11-29T00:31:02.368Z,946.91
2022-11-29T00:31:12.324Z,946.91
2022-11-29T00:31:22.265Z,946.91
2022-11-29T00:31:32.268Z,946.90
2022-11-29T00:31:42.261Z,946.91
2022-11-29T00:31:52.264Z,946.90
2022-11-29T00:32:02.262Z,946.90
2022-11-29T00:32:12.265Z,946.90
2022-11-29T00:32:22.261Z,946.90
2022-11-29T00:32:32.263Z,946.90
2022-11-29T00:32:42.263Z,946.90
2022-11-29T00:32:52.269Z,946.90
2022-11-29T00:33:02.273Z,946.90
2022-11-29T00:33:12.265Z,946.90
2022-11-29T00:33:22.280Z,946.90
2022-11-29T00:33:32.268Z,946.90
2022-11-29T00:33:42.256Z,946.90
2022-11-29T00:33:52.300Z,946.90
2022-11-29T00:34:02.282Z,946.91
2022-11-29T00:34:12.268Z,946.91
2022-11-29T00:34:22.272Z,946.91
2022-11-29T00:34:32.277Z,946.91
2022-11-29T00:34:42.638Z,946.91
2022-11-29T00:34:52.274Z,946.91
2022-11-29T00:35:08.119Z,946.91
2022-11-29T00:35:13.275Z,946.92
2022-11-29T00:35:22.272Z,946.91
2022-11-29T00:35:32.273Z,946.92
2022-11-29T00:35:42.279Z,946.92
2022-11-29T00:35:52.276Z,946.92
2022-11-29T00:36:02.277Z,946.92
2022-11-29T00:36:12.280Z,946.93
2022-11-29T00:36:22.278Z,946.93
2022-11-29T00:36:32.275Z,946.93
2022-11-29T00:36:42.292Z,946.93
2022-11-29T00:36:52.279Z,946.93
2022-11-29T00:37:02.284Z,946.93
2022-11-29T00:37:12.283Z,946.94
2022-11-29T00:37:22.277Z,946.94
2022-11-29T00:37:32.273Z,946.94
2022-11-29T00:37:42.283Z,946.94
2022-11-29T00:37:52.279Z,946.95
2022-11-29T00:38:02.289Z,946.95
2022-11-29T00:38:12.286Z,946.95
2022-11-29T00:38:22.287Z,946.95
2022-11-29T00:38:32.282Z,946.96
2022-11-29T00:38:42.288Z,946.96
2022-11-29T00:38:52.293Z,946.96
2022-11-29T00:39:02.290Z,946.97
2022-11-29T00:39:12.292Z,946.97
2022-11-29T00:39:22.311Z,946.97
2022-11-29T00:39:32.294Z,946.97
2022-11-29T00:39:42.291Z,946.97
2022-11-29T00:39:52.288Z,946.97
2022-11-29T00:40:02.303Z,946.98
2022-11-29T00:40:12.301Z,946.97
2022-11-29T00:40:22.292Z,946.97
2022-11-29T00:40:32.291Z,946.97
2022-11-29T00:40:42.297Z,946.98
2022-11-29T00:40:52.293Z,946.98
2022-11-29T00:41:02.300Z,946.98
2022-11-29T00:41:12.299Z,946.98
2022-11-29T00:41:22.307Z,946.98
2022-11-29T00:41:32.299Z,946.98
2022-11-29T00:41:42.297Z,946.98
2022-11-29T00:41:52.302Z,946.98
2022-11-29T00:42:02.306Z,946.98
2022-11-29T00:42:12.304Z,946.98
2022-11-29T00:42:22.299Z,946.98
2022-11-29T00:42:32.305Z,946.98
2022-11-29T00:42:42.303Z,946.98
2022-11-29T00:42:52.307Z,946.97
2022-11-29T00:43:02.310Z,946.98
2022-11-29T00:43:12.305Z,946.98
2022-11-29T00:43:22.302Z,946.97
2022-11-29T00:43:32.302Z,946.97
2022-11-29T00:43:42.308Z,946.97
2022-11-29T00:43:52.309Z,946.97
2022-11-29T00:44:02.309Z,946.97
2022-11-29T00:44:18.361Z,946.97
2022-11-29T00:44:23.308Z,946.97
2022-11-29T00:44:32.310Z,946.97
2022-11-29T00:44:42.693Z,946.97
2022-11-29T00:44:52.309Z,946.97
2022-11-29T00:45:02.311Z,946.97
2022-11-29T00:45:12.311Z,946.97
2022-11-29T00:45:22.312Z,946.97
2022-11-29T00:45:32.317Z,946.96
2022-11-29T00:45:42.341Z,946.96
2022-11-29T00:45:52.376Z,946.96
2022-11-29T00:46:02.395Z,946.96
2022-11-29T00:46:12.379Z,946.96
2022-11-29T00:46:22.346Z,946.96
2022-11-29T00:46:32.311Z,946.96
2022-11-29T00:46:42.314Z,946.96
2022-11-29T00:46:52.315Z,946.96
2022-11-29T00:47:02.316Z,946.96
2022-11-29T00:47:12.324Z,946.96
2022-11-29T00:47:22.320Z,946.95
2022-11-29T00:47:32.323Z,946.95
2022-11-29T00:47:42.323Z,946.95
2022-11-29T00:47:52.320Z,946.96
2022-11-29T00:48:02.323Z,946.96
2022-11-29T00:48:12.321Z,946.95
2022-11-29T00:48:22.311Z,946.95
2022-11-29T00:48:32.328Z,946.95
2022-11-29T00:48:42.323Z,946.95
2022-11-29T00:48:52.332Z,946.95
2022-11-29T00:49:02.311Z,946.95
2022-11-29T00:49:12.327Z,946.95
2022-11-29T00:49:22.324Z,946.95
2022-11-29T00:49:32.327Z,946.95
2022-11-29T00:49:42.330Z,946.95
2022-11-29T00:49:52.327Z,946.94
2022-11-29T00:50:02.332Z,946.94
2022-11-29T00:50:12.330Z,946.95
2022-11-29T00:50:22.331Z,946.95
2022-11-29T00:50:32.335Z,946.95
2022-11-29T00:50:42.331Z,946.95
2022-11-29T00:50:52.334Z,946.95
2022-11-29T00:51:02.334Z,946.95
2022-11-29T00:51:12.334Z,946.95
2022-11-29T00:51:22.335Z,946.95
2022-11-29T00:51:32.339Z,946.95
2022-11-29T00:51:42.336Z,946.95
2022-11-29T00:51:52.332Z,946.96
2022-11-29T00:52:02.340Z,946.96
2022-11-29T00:52:12.325Z,946.96
2022-11-29T00:52:22.341Z,946.96
2022-11-29T00:52:32.341Z,946.96
2022-11-29T00:52:42.341Z,946.96
2022-11-29T00:52:52.344Z,946.96
2022-11-29T00:53:02.338Z,946.96
2022-11-29T00:53:12.348Z,946.96
2022-11-29T00:53:22.325Z,946.96
2022-11-29T00:53:32.356Z,946.96
2022-11-29T00:53:42.344Z,946.96
2022-11-29T00:53:52.359Z,946.96
2022-11-29T00:54:02.347Z,946.96
2022-11-29T00:54:12.344Z,946.96
2022-11-29T00:54:22.346Z,946.97
2022-11-29T00:54:32.348Z,946.97
2022-11-29T00:54:42.643Z,946.97
2022-11-29T00:54:52.356Z,946.96
2022-11-29T00:55:02.345Z,946.97
2022-11-29T00:55:12.347Z,946.97
2022-11-29T00:55:22.358Z,946.97
2022-11-29T00:55:32.348Z,946.97
2022-11-29T00:55:42.352Z,946.97
2022-11-29T00:55:52.355Z,946.97
2022-11-29T00:56:02.354Z,946.97
2022-11-29T00:56:12.356Z,946.97
2022-11-29T00:56:22.356Z,946.97
2022-11-29T00:56:32.354Z,946.97
2022-11-29T00:56:42.359Z,946.97
2022-11-29T00:56:52.356Z,946.98
2022-11-29T00:57:02.357Z,946.97
2022-11-29T00:57:12.353Z,946.98
2022-11-29T00:57:22.354Z,946.97
2022-11-29T00:57:32.355Z,946.98
2022-11-29T00:57:42.358Z,946.98
2022-11-29T00:57:52.344Z,946.98
2022-11-29T00:58:03.382Z,946.98
2022-11-29T00:58:12.356Z,946.98
2022-11-29T00:58:22.359Z,946.98
2022-11-29T00:58:32.364Z,946.98
2022-11-29T00:58:42.349Z,946.98
2022-11-29T00:58:52.364Z,946.98
2022-11-29T00:59:02.365Z,946.98
2022-11-29T00:59:12.353Z,946.98
2022-11-29T00:59:22.348Z,946.98
2022-11-29T00:59:32.366Z,946.98
2022-11-29T00:59:42.368Z,946.98
2022-11-29T00:59:52.363Z,946.98
2022-11-29T01:00:02.373Z,946.98
2022-11-29T01:00:12.368Z,946.98
2022-11-29T01:00:22.352Z,946.98
2022-11-29T01:00:32.356Z,946.98
2022-11-29T01:00:42.374Z,946.98
2022-11-29T01:00:52.390Z,946.98
2022-11-29T01:01:02.390Z,946.98
2022-11-29T01:01:12.423Z,946.98
2022-11-29T01:01:22.421Z,946.98
2022-11-29T01:01:32.419Z,946.98
2022-11-29T01:01:42.399Z,946.98
2022-11-29T01:01:52.383Z,946.98
2022-11-29T01:02:02.425Z,946.98
2022-11-29T01:02:12.470Z,946.99
2022-11-29T01:02:22.429Z,946.98
2022-11-29T01:02:32.420Z,946.98
2022-11-29T01:02:42.457Z,946.98
2022-11-29T01:02:52.364Z,946.98
2022-11-29T01:03:02.382Z,946.98
2022-11-29T01:03:12.367Z,946.97
2022-11-29T01:03:22.372Z,946.98
2022-11-29T01:03:32.368Z,946.98
2022-11-29T01:03:42.374Z,946.97
2022-11-29T01:03:52.376Z,946.98
2022-11-29T01:04:02.394Z,946.98
2022-11-29T01:04:12.389Z,946.98
2022-11-29T01:04:22.387Z,946.98
2022-11-29T01:04:32.375Z,946.98
2022-11-29T01:04:42.682Z,946.98
2022-11-29T01:04:52.373Z,946.98
2022-11-29T01:05:02.384Z,946.98
2022-11-29T01:05:12.394Z,946.98
2022-11-29T01:05:22.393Z,946.98
2022-11-29T01:05:32.418Z,946.98
2022-11-29T01:05:42.397Z,946.98
2022-11-29T01:05:52.411Z,946.97
2022-11-29T01:06:02.396Z,946.97
2022-11-29T01:06:12.400Z,946.97
2022-11-29T01:06:22.400Z,946.97
2022-11-29T01:06:32.401Z,946.97
2022-11-29T01:06:42.391Z,946.97
2022-11-29T01:06:52.397Z,946.97
2022-11-29T01:07:02.399Z,946.97
2022-11-29T01:07:12.400Z,946.96
2022-11-29T01:07:22.443Z,946.97
2022-11-29T01:07:32.463Z,946.96
2022-11-29T01:07:42.440Z,946.96
2022-11-29T01:07:52.440Z,946.96
2022-11-29T01:08:02.402Z,946.96
2022-11-29T01:08:12.403Z,946.95
2022-11-29T01:08:22.407Z,946.95
2022-11-29T01:08:32.405Z,946.95
2022-11-29T01:08:42.408Z,946.95
2022-11-29T01:08:52.418Z,946.95
2022-11-29T01:09:02.409Z,946.95
2022-11-29T01:09:12.408Z,946.95
2022-11-29T01:09:22.415Z,946.95
2022-11-29T01:09:32.433Z,946.95
2022-11-29T01:09:42.420Z,946.95
2022-11-29T01:09:52.413Z,946.95
2022-11-29T01:10:02.415Z,946.95
2022-11-29T01:10:12.414Z,946.95
2022-11-29T01:10:22.422Z,946.95
2022-11-29T01:10:32.414Z,946.95
2022-11-29T01:10:42.419Z,946.95
2022-11-29T01:10:52.427Z,946.95
2022-11-29T01:11:02.424Z,946.95
2022-11-29T01:11:12.424Z,946.95
2022-11-29T01:11:22.420Z,946.95
2022-11-29T01:11:32.428Z,946.95
2022-11-29T01:11:42.426Z,946.95
2022-11-29T01:11:52.423Z,946.95
2022-11-29T01:12:02.424Z,946.95
2022-11-29T01:12:12.431Z,946.96
2022-11-29T01:12:22.425Z,946.96
2022-11-29T01:12:32.424Z,946.96
2022-11-29T01:12:42.421Z,946.96
2022-11-29T01:12:52.423Z,946.96
2022-11-29T01:13:02.430Z,946.96
2022-11-29T01:13:12.428Z,946.96
2022-11-29T01:13:22.430Z,946.97
2022-11-29T01:13:32.425Z,946.97
2022-11-29T01:13:42.430Z,946.97
2022-11-29T01:13:52.431Z,946.97
2022-11-29T01:14:02.431Z,946.97
2022-11-29T01:14:12.433Z,946.97
2022-11-29T01:14:22.429Z,946.97
2022-11-29T01:14:32.435Z,946.97
2022-11-29T01:14:42.848Z,946.97
2022-11-29T01:14:52.431Z,946.97
2022-11-29T01:15:02.432Z,946.98
2022-11-29T01:15:12.430Z,946.98
2022-11-29T01:15:22.436Z,946.98
2022-11-29T01:15:32.436Z,946.98
2022-11-29T01:15:42.437Z,946.99
2022-11-29T01:15:52.439Z,946.99
2022-11-29T01:16:02.438Z,946.99
2022-11-29T01:16:12.435Z,946.99
2022-11-29T01:16:22.473Z,946.99
2022-11-29T01:16:32.499Z,946.99
2022-11-29T01:16:42.469Z,946.99
2022-11-29T01:16:52.484Z,946.99
2022-11-29T01:17:02.476Z,946.99
2022-11-29T01:17:12.428Z,946.99
2022-11-29T01:17:22.438Z,947.00
2022-11-29T01:17:32.440Z,947.00
2022-11-29T01:17:42.442Z,947.00
2022-11-29T01:17:52.443Z,946.99
2022-11-29T01:18:02.453Z,947.00
2022-11-29T01:18:12.444Z,947.00
2022-11-29T01:18:22.448Z,947.00
2022-11-29T01:18:32.450Z,947.00
2022-11-29T01:18:42.446Z,947.00
2022-11-29T01:18:52.459Z,947.00
2022-11-29T01:19:02.447Z,947.00
2022-11-29T01:19:12.452Z,947.00
2022-11-29T01:19:22.433Z,947.00
2022-11-29T01:19:32.451Z,947.00
2022-11-29T01:19:47.827Z,947.00
2022-11-29T01:19:53.454Z,947.00
2022-11-29T01:20:02.451Z,947.00
2022-11-29T01:20:12.455Z,947.00
2022-11-29T01:20:22.435Z,947.00
2022-11-29T01:20:32.452Z,947.00
2022-11-29T01:20:42.456Z,947.00
2022-11-29T01:20:52.452Z,947.00
2022-11-29T01:21:02.455Z,947.00
2022-11-29T01:21:12.461Z,947.00
2022-11-29T01:21:22.457Z,947.00
2022-11-29T01:21:32.451Z,947.00
2022-11-29T01:21:42.450Z,947.00
2022-11-29T01:21:52.451Z,947.00
2022-11-29T01:22:02.460Z,947.00
2022-11-29T01:22:12.453Z,947.00
2022-11-29T01:22:22.455Z,947.01
2022-11-29T01:22:32.458Z,947.00
2022-11-29T01:22:42.461Z,947.01
2022-11-29T01:22:52.454Z,947.00
2022-11-29T01:23:02.457Z,947.01
2022-11-29T01:23:12.459Z,947.01
2022-11-29T01:23:22.457Z,947.01
2022-11-29T01:23:32.458Z,947.01
2022-11-29T01:23:42.463Z,947.01
2022-11-29T01:23:52.478Z,947.01
2022-11-29T01:24:02.469Z,947.01
2022-11-29T01:24:12.462Z,947.01
2022-11-29T01:24:22.466Z,947.02
2022-11-29T01:24:32.462Z,947.02
2022-11-29T01:24:42.817Z,947.02
2022-11-29T01:24:52.463Z,947.02
2022-11-29T01:25:02.465Z,947.02
2022-11-29T01:25:12.464Z,947.02
2022-11-29T01:25:22.468Z,947.02
2022-11-29T01:25:32.470Z,947.02
2022-11-29T01:25:42.469Z,947.02
2022-11-29T01:25:52.500Z,947.02
2022-11-29T01:26:02.470Z,947.02
2022-11-29T01:26:12.484Z,947.02
2022-11-29T01:26:22.469Z,947.03
2022-11-29T01:26:32.472Z,947.03
2022-11-29T01:26:42.472Z,947.02
2022-11-29T01:26:52.474Z,947.03
2022-11-29T01:27:02.474Z,947.02
2022-11-29T01:27:12.478Z,947.02
2022-11-29T01:27:22.473Z,947.03
2022-11-29T01:27:32.476Z,947.02
2022-11-29T01:27:42.476Z,947.03
2022-11-29T01:27:52.476Z,947.02
2022-11-29T01:28:02.480Z,947.03
2022-11-29T01:28:12.479Z,947.03
2022-11-29T01:28:22.481Z,947.03
2022-11-29T01:28:32.481Z,947.03
2022-11-29T01:28:42.477Z,947.03
2022-11-29T01:28:52.522Z,947.03
2022-11-29T01:29:02.479Z,947.03
2022-11-29T01:29:12.479Z,947.03
2022-11-29T01:29:22.479Z,947.03
2022-11-29T01:29:32.480Z,947.03
2022-11-29T01:29:42.480Z,947.03
2022-11-29T01:29:52.483Z,947.03
2022-11-29T01:30:02.484Z,947.03
2022-11-29T01:30:12.484Z,947.03
2022-11-29T01:30:22.495Z,947.04
2022-11-29T01:30:32.524Z,947.04
2022-11-29T01:30:42.536Z,947.04
2022-11-29T01:30:52.506Z,947.04
2022-11-29T01:31:02.517Z,947.04
2022-11-29T01:31:12.524Z,947.04
2022-11-29T01:31:22.495Z,947.04
2022-11-29T01:31:32.499Z,947.04
2022-11-29T01:31:42.489Z,947.04
2022-11-29T01:31:52.482Z,947.04
2022-11-29T01:32:02.495Z,947.05
2022-11-29T01:32:12.491Z,947.05
2022-11-29T01:32:22.480Z,947.05
2022-11-29T01:32:32.499Z,947.05
2022-11-29T01:32:42.497Z,947.05
2022-11-29T01:32:52.494Z,947.05
2022-11-29T01:33:02.499Z,947.05
2022-11-29T01:33:12.494Z,947.05
2022-11-29T01:33:22.483Z,947.05
2022-11-29T01:33:32.507Z,947.05
2022-11-29T01:33:42.497Z,947.06
2022-11-29T01:33:52.490Z,947.06
2022-11-29T01:34:02.507Z,947.06
2022-11-29T01:34:12.498Z,947.06
2022-11-29T01:34:22.506Z,947.06
2022-11-29T01:34:32.503Z,947.06
2022-11-29T01:34:43.000Z,947.06
2022-11-29T01:34:52.503Z,947.06
2022-11-29T01:35:02.504Z,947.06
2022-11-29T01:35:12.507Z,947.06
2022-11-29T01:35:22.504Z,947.06
2022-11-29T01:35:32.502Z,947.06
2022-11-29T01:35:42.502Z,947.07
2022-11-29T01:35:52.508Z,947.07
2022-11-29T01:36:02.505Z,947.07
2022-11-29T01:36:12.502Z,947.07
2022-11-29T01:36:22.513Z,947.07
2022-11-29T01:36:32.513Z,947.07
2022-11-29T01:36:42.509Z,947.07
2022-11-29T01:36:52.516Z,947.07
2022-11-29T01:37:02.507Z,947.07
2022-11-29T01:37:12.511Z,947.07
2022-11-29T01:37:22.506Z,947.07
2022-11-29T01:37:32.514Z,947.07
2022-11-29T01:37:42.511Z,947.07
2022-11-29T01:37:52.516Z,947.07
2022-11-29T01:38:02.513Z,947.07
2022-11-29T01:38:12.515Z,947.07
2022-11-29T01:38:22.513Z,947.07
2022-11-29T01:38:32.515Z,947.08
2022-11-29T01:38:42.534Z,947.07
2022-11-29T01:38:52.516Z,947.08
2022-11-29T01:39:02.527Z,947.08
2022-11-29T01:39:12.525Z,947.07
2022-11-29T01:39:22.515Z,947.08
2022-11-29T01:39:32.527Z,947.08
2022-11-29T01:39:42.517Z,947.08
2022-11-29T01:39:52.525Z,947.08
2022-11-29T01:40:02.530Z,947.08
2022-11-29T01:40:12.520Z,947.08
2022-11-29T01:40:22.524Z,947.09
2022-11-29T01:40:32.521Z,947.09
2022-11-29T01:40:42.531Z,947.09
2022-11-29T01:40:52.528Z,947.09
2022-11-29T01:41:02.530Z,947.09
2022-11-29T01:41:12.523Z,947.09
2022-11-29T01:41:22.528Z,947.09
2022-11-29T01:41:32.524Z,947.09
2022-11-29T01:41:42.524Z,947.10
2022-11-29T01:41:52.526Z,947.10
2022-11-29T01:42:02.525Z,947.10
2022-11-29T01:42:12.529Z,947.10
2022-11-29T01:42:22.536Z,947.10
2022-11-29T01:42:32.526Z,947.10
2022-11-29T01:42:42.533Z,947.10
2022-11-29T01:42:52.538Z,947.10
2022-11-29T01:43:02.528Z,947.10
2022-11-29T01:43:12.531Z,947.11
2022-11-29T01:43:22.538Z,947.11
2022-11-29T01:43:32.543Z,947.11
2022-11-29T01:43:42.535Z,947.11
2022-11-29T01:43:52.536Z,947.11
2022-11-29T01:44:02.543Z,947.11
2022-11-29T01:44:12.535Z,947.11
2022-11-29T01:44:22.537Z,947.11
2022-11-29T01:44:32.535Z,947.11
2022-11-29T01:44:42.870Z,947.11
2022-11-29T01:44:52.534Z,947.11
2022-11-29T01:45:02.540Z,947.11
2022-11-29T01:45:12.538Z,947.12
2022-11-29T01:45:22.542Z,947.12
2022-11-29T01:45:32.540Z,947.12
2022-11-29T01:45:42.572Z,947.12
2022-11-29T01:45:52.567Z,947.12
2022-11-29T01:46:02.621Z,947.13
2022-11-29T01:46:12.562Z,947.13
2022-11-29T01:46:22.577Z,947.13
2022-11-29T01:46:32.541Z,947.13
2022-11-29T01:46:42.545Z,947.13
2022-11-29T01:46:52.539Z,947.13
2022-11-29T01:47:02.541Z,947.13
2022-11-29T01:47:12.549Z,947.13
2022-11-29T01:47:22.545Z,947.13
2022-11-29T01:47:32.544Z,947.13
2022-11-29T01:47:42.540Z,947.13
2022-11-29T01:47:52.544Z,947.13
2022-11-29T01:48:02.545Z,947.13
2022-11-29T01:48:12.557Z,947.13
2022-11-29T01:48:22.548Z,947.14
2022-11-29T01:48:32.549Z,947.14
2022-11-29T01:48:42.547Z,947.14
2022-11-29T01:48:52.546Z,947.14
2022-11-29T01:49:02.554Z,947.13
2022-11-29T01:49:12.555Z,947.14
2022-11-29T01:49:22.547Z,947.14
2022-11-29T01:49:32.549Z,947.14
2022-11-29T01:49:42.555Z,947.14
2022-11-29T01:49:52.551Z,947.14
2022-11-29T01:50:02.563Z,947.14
2022-11-29T01:50:12.559Z,947.14
2022-11-29T01:50:22.549Z,947.14
2022-11-29T01:50:32.540Z,947.14
2022-11-29T01:50:42.552Z,947.14
2022-11-29T01:50:52.540Z,947.14
2022-11-29T01:51:02.562Z,947.13
2022-11-29T01:51:12.559Z,947.13
2022-11-29T01:51:22.539Z,947.13
2022-11-29T01:51:32.554Z,947.13
2022-11-29T01:51:42.559Z,947.13
2022-11-29T01:51:52.563Z,947.13
2022-11-29T01:52:02.554Z,947.12
2022-11-29T01:52:12.567Z,947.12
2022-11-29T01:52:22.558Z,947.12
2022-11-29T01:52:32.561Z,947.12
2022-11-29T01:52:42.564Z,947.12
2022-11-29T01:52:52.559Z,947.12
2022-11-29T01:53:02.571Z,947.12
2022-11-29T01:53:12.569Z,947.11
2022-11-29T01:53:22.561Z,947.12
2022-11-29T01:53:32.564Z,947.11
2022-11-29T01:53:42.571Z,947.11
2022-11-29T01:53:52.568Z,947.11
2022-11-29T01:54:02.602Z,947.11
2022-11-29T01:54:12.575Z,947.11
2022-11-29T01:54:22.569Z,947.11
2022-11-29T01:54:32.574Z,947.10
2022-11-29T01:54:43.031Z,947.10
2022-11-29T01:54:52.568Z,947.10
2022-11-29T01:55:02.571Z,947.10
2022-11-29T01:55:12.573Z,947.10
2022-11-29T01:55:22.570Z,947.10
2022-11-29T01:55:32.591Z,947.10
2022-11-29T01:55:42.606Z,947.10
2022-11-29T01:55:52.641Z,947.10
2022-11-29T01:56:02.615Z,947.10
2022-11-29T01:56:12.624Z,947.10
2022-11-29T01:56:22.580Z,947.10
2022-11-29T01:56:32.576Z,947.10
2022-11-29T01:56:42.579Z,947.10
2022-11-29T01:56:52.573Z,947.10
2022-11-29T01:57:02.575Z,947.10
2022-11-29T01:57:12.581Z,947.10
2022-11-29T01:57:22.579Z,947.10
2022-11-29T01:57:32.577Z,947.10
2022-11-29T01:57:42.582Z,947.10
2022-11-29T01:57:52.574Z,947.10
2022-11-29T01:58:02.594Z,947.10
2022-11-29T01:58:12.575Z,947.11
2022-11-29T01:58:22.580Z,947.11
2022-11-29T01:58:32.578Z,947.11
2022-11-29T01:58:42.585Z,947.11
2022-11-29T01:58:52.581Z,947.11
2022-11-29T01:59:02.592Z,947.11
2022-11-29T01:59:12.581Z,947.11
2022-11-29T01:59:22.586Z,947.11
2022-11-29T01:59:32.584Z,947.11
2022-11-29T01:59:42.583Z,947.11
2022-11-29T01:59:52.585Z,947.11
2022-11-29T02:00:02.585Z,947.11
2022-11-29T02:00:12.583Z,947.11
2022-11-29T02:00:22.585Z,947.11
2022-11-29T02:00:32.587Z,947.11
2022-11-29T02:00:42.589Z,947.11
2022-11-29T02:00:52.627Z,947.11
2022-11-29T02:01:02.643Z,947.11
2022-11-29T02:01:12.629Z,947.11
2022-11-29T02:01:22.618Z,947.11
2022-11-29T02:01:32.704Z,947.11
2022-11-29T02:01:42.621Z,947.11
2022-11-29T02:01:52.596Z,947.11
2022-11-29T02:02:02.597Z,947.11
2022-11-29T02:02:12.650Z,947.11
2022-11-29T02:02:22.640Z,947.11
2022-11-29T02:02:32.654Z,947.11
2022-11-29T02:02:42.661Z,947.11
2022-11-29T02:02:52.609Z,947.10
2022-11-29T02:03:02.602Z,947.10
2022-11-29T02:03:12.601Z,947.10
2022-11-29T02:03:22.599Z,947.10
2022-11-29T02:03:32.595Z,947.10
2022-11-29T02:03:42.608Z,947.10
2022-11-29T02:03:52.600Z,947.10
2022-11-29T02:04:02.604Z,947.10
2022-11-29T02:04:12.598Z,947.10
2022-11-29T02:04:22.599Z,947.10
2022-11-29T02:04:32.602Z,947.10
2022-11-29T02:04:43.025Z,947.09